createdAt,value
2019-01-18T00:00:08.751Z,1001.04
2019-01-18T00:01:08.725Z,1001.02
2019-01-18T00:02:08.722Z,1001.08
2019-01-18T00:03:08.716Z,1001.12
2019-01-18T00:04:08.692Z,1001.11
2019-01-18T00:05:08.711Z,1001.15
2019-01-18T00:06:08.681Z,1001.16
2019-01-18T00:07:08.651Z,1001.14
2019-01-18T00:08:08.663Z,1001.16
2019-01-18T00:09:08.656Z,1001.18
2019-01-18T00:10:08.637Z,1001.17
2019-01-18T00:11:08.605Z,1001.17
2019-01-18T00:12:08.610Z,1001.24
2019-01-18T00:13:08.591Z,1001.27
2019-01-18T00:14:08.592Z,1001.26
2019-01-18T00:15:08.574Z,1001.38
2019-01-18T00:16:08.552Z,1001.36
2019-01-18T00:17:08.542Z,1001.43
2019-01-18T00:18:08.538Z,1001.44
2019-01-18T00:19:08.533Z,1001.44
2019-01-18T00:20:08.516Z,1001.49
2019-01-18T00:21:08.501Z,1001.46
2019-01-18T00:22:08.494Z,1001.51
2019-01-18T00:23:08.477Z,1001.57
2019-01-18T00:24:08.483Z,1001.54
2019-01-18T00:25:08.471Z,1001.58
2019-01-18T00:26:08.437Z,1001.67
2019-01-18T00:27:08.437Z,1001.61
2019-01-18T00:28:08.428Z,1001.67
2019-01-18T00:29:08.424Z,1001.71
2019-01-18T00:30:08.404Z,1001.71
2019-01-18T00:31:08.412Z,1001.72
2019-01-18T00:32:08.386Z,1001.68
2019-01-18T00:33:08.395Z,1001.71
2019-01-18T00:34:08.384Z,1001.72
2019-01-18T00:35:08.364Z,1001.71
2019-01-18T00:36:08.350Z,1001.71
2019-01-18T00:37:08.362Z,1001.74
2019-01-18T00:38:08.322Z,1001.73
2019-01-18T00:39:08.326Z,1001.69
2019-01-18T00:40:08.347Z,1001.80
2019-01-18T00:41:08.281Z,1001.81
2019-01-18T00:42:08.267Z,1001.79
2019-01-18T00:43:08.285Z,1001.80
2019-01-18T00:44:08.285Z,1001.90
2019-01-18T00:45:08.274Z,1001.85
2019-01-18T00:46:08.251Z,1001.90
2019-01-18T00:47:08.237Z,1001.97
2019-01-18T00:48:08.241Z,1001.98
2019-01-18T00:49:08.208Z,1001.96
2019-01-18T00:50:08.337Z,1002.01
2019-01-18T00:51:08.190Z,1001.99
2019-01-18T00:52:08.170Z,1001.97
2019-01-18T00:53:08.152Z,1002.01
2019-01-18T00:54:08.168Z,1002.06
2019-01-18T00:55:08.130Z,1002.08
2019-01-18T00:56:08.118Z,1002.04
2019-01-18T00:57:08.107Z,1002.11
2019-01-18T00:58:08.096Z,1002.09
2019-01-18T00:59:08.109Z,1002.18
2019-01-18T01:00:08.087Z,1002.18
2019-01-18T01:01:08.072Z,1002.16
2019-01-18T01:02:08.062Z,1002.16
2019-01-18T01:03:08.055Z,1002.22
2019-01-18T01:04:08.076Z,1002.26
2019-01-18T01:05:08.046Z,1002.29
2019-01-18T01:06:08.035Z,1002.31
2019-01-18T01:07:08.018Z,1002.30
2019-01-18T01:08:07.998Z,1002.34
2019-01-18T01:09:07.995Z,1002.35
2019-01-18T01:10:07.978Z,1002.37
2019-01-18T01:11:07.971Z,1002.40
2019-01-18T01:12:07.954Z,1002.44
2019-01-18T01:13:07.971Z,1002.58
2019-01-18T01:14:07.942Z,1002.60
2019-01-18T01:15:07.974Z,1002.60
2019-01-18T01:16:07.901Z,1002.62
2019-01-18T01:17:07.895Z,1002.65
2019-01-18T01:18:07.904Z,1002.65
2019-01-18T01:19:07.883Z,1002.69
2019-01-18T01:20:07.875Z,1002.68
2019-01-18T01:21:07.848Z,1002.71
2019-01-18T01:22:07.840Z,1002.71
2019-01-18T01:23:07.836Z,1002.71
2019-01-18T01:24:07.838Z,1002.73
2019-01-18T01:25:07.829Z,1002.71
2019-01-18T01:26:07.819Z,1002.75
2019-01-18T01:27:07.784Z,1002.73
2019-01-18T01:28:07.773Z,1002.73
2019-01-18T01:29:07.809Z,1002.75
2019-01-18T01:30:07.765Z,1002.74
2019-01-18T01:31:07.755Z,1002.81
2019-01-18T01:32:07.767Z,1002.79
2019-01-18T01:33:07.718Z,1002.76
2019-01-18T01:34:07.727Z,1002.79
2019-01-18T01:35:07.711Z,1002.85
2019-01-18T01:36:07.682Z,1002.88
2019-01-18T01:37:07.684Z,1002.92
2019-01-18T01:38:07.671Z,1002.89
2019-01-18T01:39:07.657Z,1002.97
2019-01-18T01:40:07.672Z,1002.95
2019-01-18T01:41:07.638Z,1002.98
2019-01-18T01:42:07.620Z,1003.01
2019-01-18T01:43:07.609Z,1003.10
2019-01-18T01:44:07.595Z,1003.17
2019-01-18T01:45:07.612Z,1003.20
2019-01-18T01:46:07.595Z,1003.20
2019-01-18T01:47:07.568Z,1003.23
2019-01-18T01:48:07.563Z,1003.28
2019-01-18T01:50:16.865Z,1003.35
2019-01-18T01:51:17.787Z,1003.34
2019-01-18T01:52:17.788Z,1003.39
2019-01-18T01:53:17.778Z,1003.39
2019-01-18T01:54:17.759Z,1003.44
2019-01-18T01:55:17.776Z,1003.45
2019-01-18T01:56:17.765Z,1003.52
2019-01-18T01:57:17.744Z,1003.57
2019-01-18T01:58:17.741Z,1003.58
2019-01-18T01:59:17.720Z,1003.60
2019-01-18T02:00:17.719Z,1003.62
2019-01-18T02:01:17.716Z,1003.64
2019-01-18T02:02:17.713Z,1003.67
2019-01-18T02:03:17.666Z,1003.68
2019-01-18T02:04:17.667Z,1003.66
2019-01-18T02:05:17.657Z,1003.73
2019-01-18T02:06:17.634Z,1003.73
2019-01-18T02:07:17.647Z,1003.72
2019-01-18T02:08:17.623Z,1003.70
2019-01-18T02:09:17.610Z,1003.77
2019-01-18T02:10:17.611Z,1003.78
2019-01-18T02:11:17.598Z,1003.78
2019-01-18T02:12:17.586Z,1003.79
2019-01-18T02:13:17.561Z,1003.80
2019-01-18T02:14:17.554Z,1003.83
2019-01-18T02:15:17.567Z,1003.84
2019-01-18T02:16:17.599Z,1003.82
2019-01-18T02:17:17.546Z,1003.85
2019-01-18T02:18:17.536Z,1003.81
2019-01-18T02:19:17.503Z,1003.89
2019-01-18T02:20:17.499Z,1003.89
2019-01-18T02:21:17.485Z,1003.90
2019-01-18T02:22:17.472Z,1003.94
2019-01-18T02:23:17.463Z,1004.03
2019-01-18T02:24:17.452Z,1004.02
2019-01-18T02:25:17.445Z,1004.08
2019-01-18T02:26:17.435Z,1004.14
2019-01-18T02:27:17.442Z,1004.14
2019-01-18T02:28:17.411Z,1004.16
2019-01-18T02:29:17.401Z,1004.18
2019-01-18T02:30:17.424Z,1004.19
2019-01-18T02:31:17.393Z,1004.23
2019-01-18T02:32:17.380Z,1004.23
2019-01-18T02:33:17.352Z,1004.25
2019-01-18T02:34:17.337Z,1004.24
2019-01-18T02:35:17.347Z,1004.27
2019-01-18T02:36:17.337Z,1004.29
2019-01-18T02:37:17.308Z,1004.32
2019-01-18T02:38:17.301Z,1004.32
2019-01-18T02:39:17.277Z,1004.36
2019-01-18T02:40:17.285Z,1004.36
2019-01-18T02:41:17.275Z,1004.38
2019-01-18T02:42:17.271Z,1004.33
2019-01-18T02:43:17.242Z,1004.38
2019-01-18T02:44:17.227Z,1004.35
2019-01-18T02:45:17.239Z,1004.34
2019-01-18T02:46:17.212Z,1004.33
2019-01-18T02:47:17.204Z,1004.31
2019-01-18T02:48:17.202Z,1004.28
2019-01-18T02:49:17.186Z,1004.27
2019-01-18T02:50:17.199Z,1004.25
2019-01-18T02:51:17.165Z,1004.27
2019-01-18T02:52:17.150Z,1004.28
2019-01-18T02:53:17.129Z,1004.32
2019-01-18T02:54:17.116Z,1004.35
2019-01-18T02:55:17.139Z,1004.34
2019-01-18T02:56:17.103Z,1004.37
2019-01-18T02:57:17.093Z,1004.37
2019-01-18T02:58:17.080Z,1004.43
2019-01-18T02:59:17.110Z,1004.39
2019-01-18T03:00:17.087Z,1004.43
2019-01-18T03:01:17.075Z,1004.51
2019-01-18T03:02:17.031Z,1004.56
2019-01-18T03:03:17.030Z,1004.57
2019-01-18T03:04:17.014Z,1004.62
2019-01-18T03:05:17.007Z,1004.64
2019-01-18T03:06:16.989Z,1004.62
2019-01-18T03:07:16.989Z,1004.61
2019-01-18T03:08:16.991Z,1004.66
2019-01-18T03:09:16.966Z,1004.65
2019-01-18T03:10:16.953Z,1004.69
2019-01-18T03:11:16.976Z,1004.70
2019-01-18T03:12:16.935Z,1004.73
2019-01-18T03:13:16.951Z,1004.72
2019-01-18T03:14:16.907Z,1004.76
2019-01-18T03:15:16.895Z,1004.78
2019-01-18T03:16:16.893Z,1004.77
2019-01-18T03:17:16.871Z,1004.80
2019-01-18T03:18:16.867Z,1004.85
2019-01-18T03:19:16.851Z,1004.84
2019-01-18T03:20:16.852Z,1004.87
2019-01-18T03:21:16.851Z,1004.91
2019-01-18T03:22:16.830Z,1004.89
2019-01-18T03:23:16.817Z,1004.89
2019-01-18T03:24:16.822Z,1004.94
2019-01-18T03:25:16.778Z,1004.92
2019-01-18T03:26:16.808Z,1004.94
2019-01-18T03:27:16.777Z,1004.94
2019-01-18T03:28:16.758Z,1004.97
2019-01-18T03:29:16.762Z,1004.98
2019-01-18T03:30:18.596Z,1004.96
2019-01-18T03:31:16.765Z,1004.98
2019-01-18T03:32:16.736Z,1005.02
2019-01-18T03:33:16.705Z,1005.09
2019-01-18T03:34:16.686Z,1005.07
2019-01-18T03:35:16.684Z,1005.09
2019-01-18T03:36:16.679Z,1005.10
2019-01-18T03:37:16.650Z,1005.08
2019-01-18T03:38:16.652Z,1005.12
2019-01-18T03:39:16.642Z,1005.16
2019-01-18T03:40:16.632Z,1005.13
2019-01-18T03:41:16.630Z,1005.17
2019-01-18T03:42:16.619Z,1005.16
2019-01-18T03:43:16.575Z,1005.17
2019-01-18T03:44:16.572Z,1005.19
2019-01-18T03:45:16.579Z,1005.24
2019-01-18T03:46:16.555Z,1005.24
2019-01-18T03:47:16.576Z,1005.26
2019-01-18T03:48:16.530Z,1005.28
2019-01-18T03:49:16.526Z,1005.28
2019-01-18T03:53:32.772Z,1005.35
2019-01-18T03:54:33.645Z,1005.39
2019-01-18T03:55:33.624Z,1005.41
2019-01-18T03:56:33.619Z,1005.42
2019-01-18T03:57:33.642Z,1005.41
2019-01-18T03:58:33.625Z,1005.44
2019-01-18T03:59:33.576Z,1005.43
2019-01-18T04:00:33.562Z,1005.45
2019-01-18T04:01:33.564Z,1005.42
2019-01-18T04:02:33.539Z,1005.46
2019-01-18T04:03:33.551Z,1005.47
2019-01-18T04:04:33.521Z,1005.47
2019-01-18T04:05:33.504Z,1005.50
2019-01-18T04:06:33.498Z,1005.49
2019-01-18T04:07:33.493Z,1005.52
2019-01-18T04:08:33.498Z,1005.52
2019-01-18T04:09:33.506Z,1005.54
2019-01-18T04:10:33.456Z,1005.53
2019-01-18T04:11:33.443Z,1005.53
2019-01-18T04:12:33.451Z,1005.55
2019-01-18T04:13:33.449Z,1005.51
2019-01-18T04:14:33.426Z,1005.62
2019-01-18T04:15:33.412Z,1005.57
2019-01-18T04:16:33.384Z,1005.61
2019-01-18T04:17:33.398Z,1005.59
2019-01-18T04:18:33.385Z,1005.60
2019-01-18T04:19:33.365Z,1005.60
2019-01-18T04:20:33.346Z,1005.63
2019-01-18T04:21:33.349Z,1005.63
2019-01-18T04:22:33.331Z,1005.64
2019-01-18T04:23:33.325Z,1005.64
2019-01-18T04:24:33.307Z,1005.65
2019-01-18T04:25:33.293Z,1005.66
2019-01-18T04:26:33.266Z,1005.69
2019-01-18T04:27:33.300Z,1005.66
2019-01-18T04:28:33.292Z,1005.70
2019-01-18T04:29:33.248Z,1005.70
2019-01-18T04:30:33.871Z,1005.67
2019-01-18T04:31:33.223Z,1005.72
2019-01-18T04:32:33.211Z,1005.71
2019-01-18T04:33:33.217Z,1005.71
2019-01-18T04:34:33.191Z,1005.74
2019-01-18T04:35:33.199Z,1005.77
2019-01-18T04:36:33.158Z,1005.81
2019-01-18T04:37:33.159Z,1005.72
2019-01-18T04:38:33.152Z,1005.77
2019-01-18T04:39:33.151Z,1005.76
2019-01-18T04:40:33.125Z,1005.81
2019-01-18T04:41:33.123Z,1005.84
2019-01-18T04:42:33.140Z,1005.85
2019-01-18T04:43:33.103Z,1005.82
2019-01-18T04:44:33.087Z,1005.87
2019-01-18T04:45:33.070Z,1005.86
2019-01-18T04:46:33.053Z,1005.84
2019-01-18T04:47:33.039Z,1005.86
2019-01-18T04:48:33.049Z,1005.89
2019-01-18T04:49:33.037Z,1005.87
2019-01-18T04:50:33.002Z,1005.93
2019-01-18T04:51:33.011Z,1005.97
2019-01-18T04:52:33.001Z,1005.94
2019-01-18T04:53:32.973Z,1005.93
2019-01-18T04:54:33.010Z,1005.95
2019-01-18T04:55:32.976Z,1005.98
2019-01-18T04:56:32.946Z,1006.00
2019-01-18T04:57:32.949Z,1006.02
2019-01-18T04:58:32.928Z,1006.01
2019-01-18T04:59:32.916Z,1006.00
2019-01-18T05:00:32.892Z,1006.03
2019-01-18T05:01:32.890Z,1006.07
2019-01-18T05:02:32.894Z,1006.07
2019-01-18T05:03:32.857Z,1006.11
2019-01-18T05:04:32.872Z,1006.07
2019-01-18T05:05:32.857Z,1006.07
2019-01-18T05:06:32.837Z,1006.12
2019-01-18T05:07:32.834Z,1006.14
2019-01-18T05:08:32.810Z,1006.14
2019-01-18T05:09:32.808Z,1006.22
2019-01-18T05:10:32.779Z,1006.20
2019-01-18T05:11:32.775Z,1006.22
2019-01-18T05:12:32.774Z,1006.25
2019-01-18T05:13:32.743Z,1006.27
2019-01-18T05:14:32.754Z,1006.26
2019-01-18T05:15:32.724Z,1006.31
2019-01-18T05:16:32.726Z,1006.35
2019-01-18T05:17:32.709Z,1006.35
2019-01-18T05:18:32.711Z,1006.34
2019-01-18T05:19:32.689Z,1006.37
2019-01-18T05:20:32.680Z,1006.39
2019-01-18T05:21:32.659Z,1006.41
2019-01-18T05:22:32.666Z,1006.42
2019-01-18T05:23:32.639Z,1006.46
2019-01-18T05:24:32.648Z,1006.44
2019-01-18T05:25:32.630Z,1006.45
2019-01-18T05:26:32.620Z,1006.45
2019-01-18T05:27:32.587Z,1006.47
2019-01-18T05:28:32.573Z,1006.48
2019-01-18T05:29:32.587Z,1006.53
2019-01-18T05:30:32.567Z,1006.52
2019-01-18T05:31:32.561Z,1006.53
2019-01-18T05:32:32.536Z,1006.56
2019-01-18T05:33:32.525Z,1006.55
2019-01-18T05:34:32.524Z,1006.58
2019-01-18T05:35:32.500Z,1006.61
2019-01-18T05:36:32.480Z,1006.60
2019-01-18T05:37:32.479Z,1006.59
2019-01-18T05:38:32.461Z,1006.71
2019-01-18T05:39:32.470Z,1006.72
2019-01-18T05:40:32.457Z,1006.71
2019-01-18T05:41:32.427Z,1006.73
2019-01-18T05:42:32.411Z,1006.73
2019-01-18T05:43:32.562Z,1006.75
2019-01-18T05:44:32.406Z,1006.73
2019-01-18T05:45:32.395Z,1006.73
2019-01-18T05:46:32.404Z,1006.76
2019-01-18T05:47:32.375Z,1006.75
2019-01-18T05:48:32.374Z,1006.76
2019-01-18T05:49:32.369Z,1006.73
2019-01-18T05:50:32.344Z,1006.76
2019-01-18T05:51:32.327Z,1006.78
2019-01-18T05:52:32.595Z,1006.76
2019-01-18T05:55:28.049Z,1006.92
2019-01-18T05:56:29.020Z,1006.87
2019-01-18T05:57:29.008Z,1006.91
2019-01-18T05:58:28.996Z,1006.90
2019-01-18T05:59:28.989Z,1006.92
2019-01-18T06:00:29.003Z,1006.92
2019-01-18T06:01:29.235Z,1006.95
2019-01-18T06:02:28.964Z,1006.98
2019-01-18T06:03:28.961Z,1006.99
2019-01-18T06:04:28.936Z,1007.01
2019-01-18T06:05:28.928Z,1007.03
2019-01-18T06:06:28.917Z,1007.03
2019-01-18T06:07:28.916Z,1007.07
2019-01-18T06:08:28.915Z,1007.10
2019-01-18T06:09:28.901Z,1007.11
2019-01-18T06:10:28.886Z,1007.10
2019-01-18T06:11:28.875Z,1007.16
2019-01-18T06:12:28.860Z,1007.17
2019-01-18T06:13:28.842Z,1007.19
2019-01-18T06:14:28.843Z,1007.20
2019-01-18T06:15:28.829Z,1007.25
2019-01-18T06:16:28.831Z,1007.20
2019-01-18T06:17:28.801Z,1007.24
2019-01-18T06:18:28.786Z,1007.25
2019-01-18T06:19:28.788Z,1007.27
2019-01-18T06:20:28.781Z,1007.30
2019-01-18T06:21:28.761Z,1007.29
2019-01-18T06:29:58.093Z,1007.40
2019-01-18T06:31:01.829Z,1007.42
2019-01-18T06:31:59.018Z,1007.43
2019-01-18T06:37:24.351Z,1007.55
2019-01-18T06:39:31.902Z,1007.57
2019-01-18T06:40:32.891Z,1007.63
2019-01-18T06:41:32.934Z,1007.59
2019-01-18T06:42:32.885Z,1007.55
2019-01-18T06:43:54.111Z,1007.59
2019-01-18T06:44:32.921Z,1007.61
2019-01-18T06:45:33.673Z,1007.61
2019-01-18T06:46:32.921Z,1007.63
2019-01-18T06:47:32.974Z,1007.64
2019-01-18T06:48:32.872Z,1007.66
2019-01-18T06:49:32.919Z,1007.62
2019-01-18T06:50:32.794Z,1007.66
2019-01-18T06:51:32.776Z,1007.68
2019-01-18T06:52:32.834Z,1007.70
2019-01-18T06:53:32.765Z,1007.70
2019-01-18T06:54:32.776Z,1007.73
2019-01-18T06:55:32.726Z,1007.72
2019-01-18T06:56:32.790Z,1007.71
2019-01-18T06:57:32.743Z,1007.74
2019-01-18T06:58:32.713Z,1007.80
2019-01-18T06:59:32.702Z,1007.75
2019-01-18T07:00:32.692Z,1007.80
2019-01-18T07:01:32.663Z,1007.87
2019-01-18T07:02:32.683Z,1007.86
2019-01-18T07:03:32.656Z,1007.85
2019-01-18T07:04:32.643Z,1007.90
2019-01-18T07:05:32.647Z,1007.96
2019-01-18T07:06:32.611Z,1007.97
2019-01-18T07:07:32.621Z,1007.99
2019-01-18T07:08:32.598Z,1007.99
2019-01-18T07:09:32.577Z,1007.99
2019-01-18T07:10:32.581Z,1008.01
2019-01-18T07:11:32.580Z,1008.02
2019-01-18T07:12:32.569Z,1008.05
2019-01-18T07:13:32.555Z,1008.04
2019-01-18T07:14:32.533Z,1008.03
2019-01-18T07:15:32.517Z,1008.02
2019-01-18T07:16:32.518Z,1008.08
2019-01-18T07:17:32.535Z,1008.08
2019-01-18T07:18:32.484Z,1008.08
2019-01-18T07:19:32.487Z,1008.12
2019-01-18T07:20:32.468Z,1008.11
2019-01-18T07:21:32.477Z,1008.15
2019-01-18T07:22:32.463Z,1008.19
2019-01-18T07:23:32.440Z,1008.21
2019-01-18T07:24:32.426Z,1008.22
2019-01-18T07:25:32.422Z,1008.23
2019-01-18T07:26:32.403Z,1008.18
2019-01-18T07:27:32.420Z,1008.24
2019-01-18T07:28:32.417Z,1008.22
2019-01-18T07:29:32.386Z,1008.27
2019-01-18T07:30:32.364Z,1008.28
2019-01-18T07:31:32.385Z,1008.31
2019-01-18T07:32:32.358Z,1008.33
2019-01-18T07:33:32.340Z,1008.31
2019-01-18T07:34:32.349Z,1008.35
2019-01-18T07:35:32.320Z,1008.36
2019-01-18T07:36:32.297Z,1008.40
2019-01-18T07:37:32.319Z,1008.43
2019-01-18T07:38:32.277Z,1008.40
2019-01-18T07:39:32.529Z,1008.41
2019-01-18T07:40:32.339Z,1008.44
2019-01-18T07:41:32.240Z,1008.46
2019-01-18T07:42:32.256Z,1008.47
2019-01-18T07:43:32.246Z,1008.52
2019-01-18T07:44:32.214Z,1008.51
2019-01-18T07:45:32.212Z,1008.53
2019-01-18T07:46:32.238Z,1008.57
2019-01-18T07:47:32.194Z,1008.57
2019-01-18T07:48:32.175Z,1008.59
2019-01-18T07:49:32.179Z,1008.60
2019-01-18T07:50:32.173Z,1008.59
2019-01-18T07:51:32.133Z,1008.60
2019-01-18T07:52:32.667Z,1008.63
2019-01-18T07:53:32.125Z,1008.60
2019-01-18T07:54:32.102Z,1008.64
2019-01-18T07:55:32.102Z,1008.62
2019-01-18T07:56:32.084Z,1008.65
2019-01-18T07:57:32.083Z,1008.67
2019-01-18T07:58:32.092Z,1008.71
2019-01-18T07:59:32.050Z,1008.70
2019-01-18T08:00:32.037Z,1008.72
2019-01-18T08:01:32.069Z,1008.69
2019-01-18T08:02:32.013Z,1008.71
2019-01-18T08:03:32.003Z,1008.72
2019-01-18T08:04:31.989Z,1008.72
2019-01-18T08:05:32.002Z,1008.71
2019-01-18T08:06:31.953Z,1008.75
2019-01-18T08:07:31.957Z,1008.77
2019-01-18T08:08:31.981Z,1008.78
2019-01-18T08:09:31.937Z,1008.82
2019-01-18T08:10:31.941Z,1008.81
2019-01-18T08:11:31.900Z,1008.83
2019-01-18T08:12:31.893Z,1008.85
2019-01-18T08:13:31.914Z,1008.90
2019-01-18T08:14:31.868Z,1008.87
2019-01-18T08:15:31.874Z,1008.93
2019-01-18T08:16:31.843Z,1008.89
2019-01-18T08:17:31.844Z,1008.90
2019-01-18T08:18:31.853Z,1008.94
2019-01-18T08:19:31.893Z,1008.92
2019-01-18T08:20:32.821Z,1008.90
2019-01-18T08:21:31.792Z,1008.93
2019-01-18T08:22:31.780Z,1009.02
2019-01-18T08:23:31.820Z,1008.99
2019-01-18T08:24:31.760Z,1009.04
2019-01-18T08:25:31.752Z,1009.04
2019-01-18T08:26:31.737Z,1009.06
2019-01-18T08:27:31.722Z,1009.07
2019-01-18T08:28:31.746Z,1009.12
2019-01-18T08:29:31.722Z,1009.10
2019-01-18T08:30:31.702Z,1009.10
2019-01-18T08:31:31.695Z,1009.13
2019-01-18T08:32:31.679Z,1009.17
2019-01-18T08:33:31.687Z,1009.18
2019-01-18T08:34:31.669Z,1009.18
2019-01-18T08:35:31.666Z,1009.19
2019-01-18T08:36:31.653Z,1009.19
2019-01-18T08:37:31.732Z,1009.15
2019-01-18T08:38:31.732Z,1009.15
2019-01-18T08:40:52.082Z,1009.18
2019-01-18T08:41:52.582Z,1009.21
2019-01-18T08:42:52.554Z,1009.16
2019-01-18T08:43:52.642Z,1009.17
2019-01-18T08:44:52.583Z,1009.21
2019-01-18T08:45:52.538Z,1009.20
2019-01-18T08:46:52.518Z,1009.21
2019-01-18T08:47:52.554Z,1009.24
2019-01-18T08:48:52.525Z,1009.25
2019-01-18T08:49:52.541Z,1009.25
2019-01-18T08:50:52.477Z,1009.23
2019-01-18T08:51:52.465Z,1009.22
2019-01-18T08:52:52.450Z,1009.25
2019-01-18T08:53:52.455Z,1009.24
2019-01-18T08:54:52.449Z,1009.27
2019-01-18T08:55:52.437Z,1009.25
2019-01-18T08:56:52.407Z,1009.28
2019-01-18T08:57:52.464Z,1009.34
2019-01-18T08:58:52.514Z,1009.28
2019-01-18T08:59:52.376Z,1009.31
2019-01-18T09:00:52.368Z,1009.30
2019-01-18T09:01:52.358Z,1009.29
2019-01-18T09:02:52.352Z,1009.33
2019-01-18T09:03:52.346Z,1009.35
2019-01-18T09:04:52.323Z,1009.39
2019-01-18T09:05:52.317Z,1009.36
2019-01-18T09:06:52.293Z,1009.36
2019-01-18T09:07:52.295Z,1009.41
2019-01-18T09:08:52.297Z,1009.42
2019-01-18T09:09:52.271Z,1009.48
2019-01-18T09:10:52.257Z,1009.44
2019-01-18T09:11:52.241Z,1009.51
2019-01-18T09:12:52.243Z,1009.47
2019-01-18T09:13:52.249Z,1009.47
2019-01-18T09:14:52.220Z,1009.46
2019-01-18T09:15:52.231Z,1009.52
2019-01-18T09:16:52.188Z,1009.52
2019-01-18T09:17:52.183Z,1009.47
2019-01-18T09:18:52.298Z,1009.50
2019-01-18T09:19:52.172Z,1009.50
2019-01-18T09:20:52.211Z,1009.49
2019-01-18T09:21:52.258Z,1009.50
2019-01-18T09:22:52.121Z,1009.47
2019-01-18T09:23:52.139Z,1009.48
2019-01-18T09:24:52.106Z,1009.50
2019-01-18T09:25:52.124Z,1009.49
2019-01-18T09:26:52.134Z,1009.50
2019-01-18T09:27:52.106Z,1009.50
2019-01-18T09:28:52.096Z,1009.54
2019-01-18T09:29:52.361Z,1009.58
2019-01-18T09:30:52.052Z,1009.57
2019-01-18T09:31:52.265Z,1009.62
2019-01-18T09:32:52.021Z,1009.62
2019-01-18T09:33:52.012Z,1009.63
2019-01-18T09:34:52.066Z,1009.62
2019-01-18T09:35:51.990Z,1009.63
2019-01-18T09:36:51.985Z,1009.62
2019-01-18T09:37:51.967Z,1009.62
2019-01-18T09:38:51.962Z,1009.65
2019-01-18T09:39:52.269Z,1009.61
2019-01-18T09:40:51.974Z,1009.64
2019-01-18T09:41:51.932Z,1009.64
2019-01-18T09:42:51.920Z,1009.70
2019-01-18T09:43:51.908Z,1009.69
2019-01-18T09:44:51.912Z,1009.67
2019-01-18T09:45:51.912Z,1009.70
2019-01-18T09:46:51.890Z,1009.72
2019-01-18T09:47:51.978Z,1009.71
2019-01-18T09:48:52.103Z,1009.69
2019-01-18T09:49:51.854Z,1009.75
2019-01-18T09:50:51.835Z,1009.66
2019-01-18T09:51:51.822Z,1009.65
2019-01-18T09:52:51.815Z,1009.68
2019-01-18T09:53:51.805Z,1009.65
2019-01-18T09:54:51.828Z,1009.65
2019-01-18T09:55:52.547Z,1009.63
2019-01-18T09:56:51.917Z,1009.65
2019-01-18T09:57:51.783Z,1009.65
2019-01-18T09:58:51.758Z,1009.60
2019-01-18T09:59:51.854Z,1009.60
2019-01-18T10:00:51.741Z,1009.60
2019-01-18T10:01:51.718Z,1009.57
2019-01-18T10:02:52.567Z,1009.57
2019-01-18T10:03:51.699Z,1009.58
2019-01-18T10:04:51.703Z,1009.63
2019-01-18T10:05:51.668Z,1009.65
2019-01-18T10:06:51.752Z,1009.68
2019-01-18T10:07:51.650Z,1009.66
2019-01-18T10:08:52.565Z,1009.69
2019-01-18T10:09:51.656Z,1009.64
2019-01-18T10:10:51.647Z,1009.66
2019-01-18T10:11:51.631Z,1009.65
2019-01-18T10:12:51.599Z,1009.65
2019-01-18T10:13:51.591Z,1009.67
2019-01-18T10:14:51.604Z,1009.69
2019-01-18T10:15:51.594Z,1009.70
2019-01-18T10:16:51.813Z,1009.71
2019-01-18T10:17:51.651Z,1009.73
2019-01-18T10:18:51.613Z,1009.75
2019-01-18T10:19:51.552Z,1009.75
2019-01-18T10:20:51.540Z,1009.74
2019-01-18T10:21:51.509Z,1009.75
2019-01-18T10:22:51.503Z,1009.74
2019-01-18T10:23:51.494Z,1009.81
2019-01-18T10:24:51.506Z,1009.82
2019-01-18T10:25:51.654Z,1009.82
2019-01-18T10:26:51.439Z,1009.79
2019-01-18T10:27:51.430Z,1009.82
2019-01-18T10:28:51.441Z,1009.80
2019-01-18T10:29:51.448Z,1009.81
2019-01-18T10:30:51.409Z,1009.85
2019-01-18T10:31:56.019Z,1009.84
2019-01-18T10:32:51.381Z,1009.85
2019-01-18T10:33:51.394Z,1009.83
2019-01-18T10:34:51.383Z,1009.83
2019-01-18T10:35:51.367Z,1009.86
2019-01-18T10:36:51.344Z,1009.85
2019-01-18T10:37:51.329Z,1009.84
2019-01-18T10:38:51.332Z,1009.85
2019-01-18T10:39:51.332Z,1009.87
2019-01-18T10:42:02.247Z,1009.80
2019-01-18T10:43:02.646Z,1009.78
2019-01-18T10:44:06.133Z,1009.79
2019-01-18T10:45:02.641Z,1009.79
2019-01-18T10:46:02.642Z,1009.82
2019-01-18T10:47:02.604Z,1009.81
2019-01-18T10:48:02.610Z,1009.80
2019-01-18T10:49:02.601Z,1009.82
2019-01-18T10:50:02.598Z,1009.80
2019-01-18T10:51:02.576Z,1009.81
2019-01-18T10:52:02.644Z,1009.74
2019-01-18T10:53:02.735Z,1009.76
2019-01-18T10:54:02.556Z,1009.73
2019-01-18T10:55:03.454Z,1009.68
2019-01-18T10:56:02.528Z,1009.70
2019-01-18T10:57:02.521Z,1009.68
2019-01-18T10:58:02.961Z,1009.69
2019-01-18T10:59:03.001Z,1009.70
2019-01-18T11:00:02.561Z,1009.73
2019-01-18T11:01:02.490Z,1009.72
2019-01-18T11:02:07.199Z,1009.70
2019-01-18T11:03:02.450Z,1009.72
2019-01-18T11:04:03.488Z,1009.71
2019-01-18T11:05:02.459Z,1009.74
2019-01-18T11:06:02.456Z,1009.70
2019-01-18T11:07:02.400Z,1009.73
2019-01-18T11:08:02.391Z,1009.70
2019-01-18T11:09:02.657Z,1009.68
2019-01-18T11:10:02.534Z,1009.68
2019-01-18T11:11:02.420Z,1009.71
2019-01-18T11:12:02.405Z,1009.72
2019-01-18T11:13:03.460Z,1009.76
2019-01-18T11:14:02.334Z,1009.71
2019-01-18T11:15:02.356Z,1009.76
2019-01-18T11:16:02.384Z,1009.72
2019-01-18T11:17:02.586Z,1009.77
2019-01-18T11:18:02.448Z,1009.72
2019-01-18T11:19:02.351Z,1009.71
2019-01-18T11:20:02.610Z,1009.70
2019-01-18T11:21:04.105Z,1009.67
2019-01-18T11:22:02.281Z,1009.59
2019-01-18T11:23:02.248Z,1009.55
2019-01-18T11:24:02.583Z,1009.54
2019-01-18T11:25:02.240Z,1009.59
2019-01-18T11:26:02.226Z,1009.54
2019-01-18T11:27:02.188Z,1009.55
2019-01-18T11:28:02.254Z,1009.55
2019-01-18T11:29:02.167Z,1009.51
2019-01-18T11:30:02.230Z,1009.52
2019-01-18T11:31:02.970Z,1009.54
2019-01-18T11:32:02.156Z,1009.49
2019-01-18T11:33:02.138Z,1009.49
2019-01-18T11:34:02.158Z,1009.52
2019-01-18T11:35:02.232Z,1009.53
2019-01-18T11:36:02.136Z,1009.54
2019-01-18T11:37:02.078Z,1009.51
2019-01-18T11:38:02.615Z,1009.51
2019-01-18T11:39:02.079Z,1009.50
2019-01-18T11:40:02.715Z,1009.49
2019-01-18T11:41:02.145Z,1009.45
2019-01-18T11:42:05.301Z,1009.48
2019-01-18T11:43:02.056Z,1009.49
2019-01-18T11:44:02.065Z,1009.45
2019-01-18T11:45:02.020Z,1009.41
2019-01-18T11:46:02.004Z,1009.42
2019-01-18T11:47:01.993Z,1009.46
2019-01-18T11:48:03.731Z,1009.49
2019-01-18T11:49:01.952Z,1009.50
2019-01-18T11:50:02.855Z,1009.43
2019-01-18T11:51:03.185Z,1009.43
2019-01-18T11:52:02.844Z,1009.45
2019-01-18T11:53:02.559Z,1009.47
2019-01-18T11:54:02.991Z,1009.48
2019-01-18T11:55:02.361Z,1009.48
2019-01-18T11:56:04.087Z,1009.48
2019-01-18T11:57:02.250Z,1009.41
2019-01-18T11:58:04.114Z,1009.47
2019-01-18T11:59:02.260Z,1009.42
2019-01-18T12:00:02.251Z,1009.39
2019-01-18T12:01:01.972Z,1009.45
2019-01-18T12:02:05.240Z,1009.41
2019-01-18T12:03:01.877Z,1009.48
2019-01-18T12:04:02.142Z,1009.47
2019-01-18T12:05:03.618Z,1009.49
2019-01-18T12:06:03.734Z,1009.45
2019-01-18T12:07:02.407Z,1009.48
2019-01-18T12:08:02.149Z,1009.49
2019-01-18T12:09:01.839Z,1009.46
2019-01-18T12:10:02.740Z,1009.51
2019-01-18T12:11:01.990Z,1009.52
2019-01-18T12:12:03.738Z,1009.50
2019-01-18T12:13:02.338Z,1009.48
2019-01-18T12:14:01.682Z,1009.51
2019-01-18T12:15:01.689Z,1009.54
2019-01-18T12:16:01.766Z,1009.53
2019-01-18T12:17:01.728Z,1009.56
2019-01-18T12:18:01.645Z,1009.55
2019-01-18T12:19:01.642Z,1009.54
2019-01-18T12:20:01.647Z,1009.58
2019-01-18T12:21:01.613Z,1009.57
2019-01-18T12:22:01.631Z,1009.56
2019-01-18T12:23:01.621Z,1009.54
2019-01-18T12:24:01.583Z,1009.51
2019-01-18T12:25:01.567Z,1009.51
2019-01-18T12:26:01.563Z,1009.52
2019-01-18T12:27:01.548Z,1009.53